sensor_id;sensor_type;location;lat;lon;timestamp;pressure;altitude;pressure_sealevel;temperature;humidity
5500;BME280;2772;42.700;23.304;2023-07-16T00:01:25;95324.03;;;26.44;100.00
5500;BME280;2772;42.700;23.304;2023-07-16T00:03:51;95320.06;;;26.53;100.00
5500;BME280;2772;42.700;23.304;2023-07-16T00:06:18;95321.72;;;26.43;100.00
5500;BME280;2772;42.700;23.304;2023-07-16T00:08:45;95320.44;;;26.51;100.00
5500;BME280;2772;42.700;23.304;2023-07-16T00:11:13;95322.44;;;26.47;100.00
5500;BME280;2772;42.700;23.304;2023-07-16T00:13:39;95323.25;;;26.44;100.00
5500;BME280;2772;42.700;23.304;2023-07-16T00:16:11;95325.19;;;26.43;100.00
5500;BME280;2772;42.700;23.304;2023-07-16T00:18:38;95326.78;;;26.44;100.00
5500;BME280;2772;42.700;23.304;2023-07-16T00:21:04;95315.47;;;26.42;100.00
5500;BME280;2772;42.700;23.304;2023-07-16T00:23:31;95310.41;;;26.37;100.00
5500;BME280;2772;42.700;23.304;2023-07-16T00:25:58;95310.81;;;26.39;100.00
5500;BME280;2772;42.700;23.304;2023-07-16T00:28:26;95315.88;;;26.37;100.00
5500;BME280;2772;42.700;23.304;2023-07-16T00:30:53;95325.19;;;26.43;100.00
5500;BME280;2772;42.700;23.304;2023-07-16T00:33:19;95318.63;;;26.37;100.00
5500;BME280;2772;42.700;23.304;2023-07-16T00:35:47;95322.16;;;26.34;100.00
5500;BME280;2772;42.700;23.304;2023-07-16T00:38:14;95327.22;;;26.32;100.00
5500;BME280;2772;42.700;23.304;2023-07-16T00:40:41;95317.81;;;26.37;100.00
5500;BME280;2772;42.700;23.304;2023-07-16T00:43:07;95329.59;;;26.30;100.00
5500;BME280;2772;42.700;23.304;2023-07-16T00:45:36;95318.72;;;26.23;100.00
5500;BME280;2772;42.700;23.304;2023-07-16T00:48:04;95320.63;;;26.30;100.00
5500;BME280;2772;42.700;23.304;2023-07-16T00:50:32;95319.09;;;26.29;100.00
5500;BME280;2772;42.700;23.304;2023-07-16T00:53:00;95320.28;;;26.24;100.00
5500;BME280;2772;42.700;23.304;2023-07-16T00:55:28;95318.69;;;26.30;100.00
5500;BME280;2772;42.700;23.304;2023-07-16T00:57:55;95318.69;;;26.27;100.00
5500;BME280;2772;42.700;23.304;2023-07-16T01:00:28;95318.69;;;26.30;100.00
5500;BME280;2772;42.700;23.304;2023-07-16T01:02:56;95316.34;;;26.29;100.00
5500;BME280;2772;42.700;23.304;2023-07-16T01:05:24;95325.75;;;26.24;100.00
5500;BME280;2772;42.700;23.304;2023-07-16T01:07:57;95318.00;;;26.16;100.00
5500;BME280;2772;42.700;23.304;2023-07-16T01:10:26;95310.19;;;26.18;100.00
5500;BME280;2772;42.700;23.304;2023-07-16T01:12:55;95318.81;;;26.09;100.00
5500;BME280;2772;42.700;23.304;2023-07-16T01:15:23;95313.66;;;26.18;100.00
5500;BME280;2772;42.700;23.304;2023-07-16T01:17:50;95314.84;;;26.17;100.00
5500;BME280;2772;42.700;23.304;2023-07-16T01:20:18;95318.34;;;26.21;100.00
5500;BME280;2772;42.700;23.304;2023-07-16T01:23:11;95315.66;;;26.18;100.00
5500;BME280;2772;42.700;23.304;2023-07-16T01:25:56;95309.47;;;26.10;100.00
5500;BME280;2772;42.700;23.304;2023-07-16T01:28:44;95313.34;;;26.09;100.00
5500;BME280;2772;42.700;23.304;2023-07-16T01:31:17;95317.59;;;26.14;100.00
5500;BME280;2772;42.700;23.304;2023-07-16T01:33:44;95311.81;;;26.08;100.00
5500;BME280;2772;42.700;23.304;2023-07-16T01:36:12;95314.13;;;26.13;100.00
5500;BME280;2772;42.700;23.304;2023-07-16T01:38:39;95328.19;;;26.12;100.00
5500;BME280;2772;42.700;23.304;2023-07-16T01:41:06;95323.16;;;26.03;100.00
5500;BME280;2772;42.700;23.304;2023-07-16T01:43:32;95320.00;;;26.08;100.00
5500;BME280;2772;42.700;23.304;2023-07-16T01:45:59;95323.88;;;26.07;100.00
5500;BME280;2772;42.700;23.304;2023-07-16T01:48:30;95326.69;;;26.00;100.00
5500;BME280;2772;42.700;23.304;2023-07-16T01:50:57;95331.38;;;25.96;100.00
5500;BME280;2772;42.700;23.304;2023-07-16T01:53:24;95333.69;;;25.94;100.00
5500;BME280;2772;42.700;23.304;2023-07-16T01:55:51;95331.03;;;25.80;100.00
5500;BME280;2772;42.700;23.304;2023-07-16T01:58:18;95332.59;;;25.85;100.00
5500;BME280;2772;42.700;23.304;2023-07-16T02:00:46;95332.59;;;25.81;100.00
5500;BME280;2772;42.700;23.304;2023-07-16T02:03:13;95329.91;;;25.71;100.00
5500;BME280;2772;42.700;23.304;2023-07-16T02:05:41;95318.22;;;25.70;100.00
5500;BME280;2772;42.700;23.304;2023-07-16T02:08:08;95325.25;;;25.68;100.00
5500;BME280;2772;42.700;23.304;2023-07-16T02:10:35;95329.94;;;25.67;100.00
5500;BME280;2772;42.700;23.304;2023-07-16T02:13:01;95320.94;;;25.70;100.00
5500;BME280;2772;42.700;23.304;2023-07-16T02:15:28;95326.41;;;25.70;100.00
5500;BME280;2772;42.700;23.304;2023-07-16T02:17:55;95322.13;;;25.73;100.00
5500;BME280;2772;42.700;23.304;2023-07-16T02:20:22;95323.69;;;25.70;100.00
5500;BME280;2772;42.700;23.304;2023-07-16T02:22:50;95337.72;;;25.69;100.00
5500;BME280;2772;42.700;23.304;2023-07-16T02:25:17;95328.84;;;25.47;100.00
5500;BME280;2772;42.700;23.304;2023-07-16T02:27:43;95327.66;;;25.52;100.00
5500;BME280;2772;42.700;23.304;2023-07-16T02:30:10;95330.78;;;25.50;100.00
5500;BME280;2772;42.700;23.304;2023-07-16T02:32:37;95330.44;;;25.41;100.00
5500;BME280;2772;42.700;23.304;2023-07-16T02:35:04;95340.94;;;25.43;100.00
5500;BME280;2772;42.700;23.304;2023-07-16T02:37:31;95324.97;;;25.45;100.00
5500;BME280;2772;42.700;23.304;2023-07-16T02:39:59;95337.03;;;25.40;100.00
5500;BME280;2772;42.700;23.304;2023-07-16T02:42:26;95336.28;;;25.43;100.00
5500;BME280;2772;42.700;23.304;2023-07-16T02:44:53;95328.06;;;25.47;100.00
5500;BME280;2772;42.700;23.304;2023-07-16T02:47:19;95331.56;;;25.47;100.00
5500;BME280;2772;42.700;23.304;2023-07-16T02:49:46;95323.41;;;25.44;100.00
5500;BME280;2772;42.700;23.304;2023-07-16T02:52:13;95332.38;;;25.44;100.00
5500;BME280;2772;42.700;23.304;2023-07-16T02:54:39;95333.94;;;25.42;100.00
5500;BME280;2772;42.700;23.304;2023-07-16T02:57:08;95335.50;;;25.39;100.00
5500;BME280;2772;42.700;23.304;2023-07-16T02:59:34;95330.44;;;25.31;100.00
5500;BME280;2772;42.700;23.304;2023-07-16T03:02:01;95332.00;;;25.28;100.00
5500;BME280;2772;42.700;23.304;2023-07-16T03:04:28;95335.13;;;25.30;100.00
5500;BME280;2772;42.700;23.304;2023-07-16T03:06:55;95340.19;;;25.32;100.00
5500;BME280;2772;42.700;23.304;2023-07-16T03:09:21;95342.91;;;25.28;100.00
5500;BME280;2772;42.700;23.304;2023-07-16T03:11:48;95333.19;;;25.24;100.00
5500;BME280;2772;42.700;23.304;2023-07-16T03:14:16;95335.53;;;25.18;100.00
5500;BME280;2772;42.700;23.304;2023-07-16T03:16:43;95339.03;;;25.19;100.00
5500;BME280;2772;42.700;23.304;2023-07-16T03:19:10;95346.44;;;25.11;100.00
5500;BME280;2772;42.700;23.304;2023-07-16T03:21:36;95342.53;;;25.16;100.00
5500;BME280;2772;42.700;23.304;2023-07-16T03:24:04;95340.59;;;25.16;100.00
5500;BME280;2772;42.700;23.304;2023-07-16T03:26:30;95344.50;;;25.15;100.00
5500;BME280;2772;42.700;23.304;2023-07-16T03:28:57;95346.44;;;25.15;100.00
5500;BME280;2772;42.700;23.304;2023-07-16T03:31:25;95350.34;;;25.17;100.00
5500;BME280;2772;42.700;23.304;2023-07-16T03:33:52;95348.00;;;25.19;100.00
5500;BME280;2772;42.700;23.304;2023-07-16T03:36:19;95348.78;;;25.16;100.00
5500;BME280;2772;42.700;23.304;2023-07-16T03:38:45;95350.34;;;25.21;100.00
5500;BME280;2772;42.700;23.304;2023-07-16T03:41:12;95355.81;;;25.10;100.00
5500;BME280;2772;42.700;23.304;2023-07-16T03:43:39;95364.75;;;25.14;100.00
5500;BME280;2772;42.700;23.304;2023-07-16T03:46:05;95358.16;;;25.15;100.00
5500;BME280;2772;42.700;23.304;2023-07-16T03:48:35;95365.16;;;25.16;100.00
5500;BME280;2772;42.700;23.304;2023-07-16T03:51:02;95359.31;;;25.18;100.00
5500;BME280;2772;42.700;23.304;2023-07-16T03:53:29;95358.91;;;25.16;100.00
5500;BME280;2772;42.700;23.304;2023-07-16T03:55:55;95362.81;;;25.11;100.00
5500;BME280;2772;42.700;23.304;2023-07-16T03:58:22;95358.91;;;25.16;100.00
5500;BME280;2772;42.700;23.304;2023-07-16T04:00:49;95363.59;;;25.12;100.00
5500;BME280;2772;42.700;23.304;2023-07-16T04:03:16;95371.00;;;25.18;100.00
5500;BME280;2772;42.700;23.304;2023-07-16T04:05:44;95372.91;;;25.32;100.00
5500;BME280;2772;42.700;23.304;2023-07-16T04:08:10;95372.53;;;25.37;100.00
5500;BME280;2772;42.700;23.304;2023-07-16T04:10:37;95372.91;;;25.42;100.00
5500;BME280;2772;42.700;23.304;2023-07-16T04:13:04;95371.31;;;25.55;100.00
5500;BME280;2772;42.700;23.304;2023-07-16T04:15:31;95372.44;;;25.61;100.00
5500;BME280;2772;42.700;23.304;2023-07-16T04:17:57;95374.00;;;25.66;100.00
5500;BME280;2772;42.700;23.304;2023-07-16T04:20:24;95374.00;;;25.69;100.00
5500;BME280;2772;42.700;23.304;2023-07-16T04:22:52;95384.09;;;25.76;100.00
5500;BME280;2772;42.700;23.304;2023-07-16T04:25:19;95373.16;;;25.79;100.00
5500;BME280;2772;42.700;23.304;2023-07-16T04:27:46;95377.78;;;25.89;100.00
5500;BME280;2772;42.700;23.304;2023-07-16T04:30:13;95385.19;;;25.96;100.00
5500;BME280;2772;42.700;23.304;2023-07-16T04:32:39;95392.59;;;26.02;100.00
5500;BME280;2772;42.700;23.304;2023-07-16T04:35:07;95389.00;;;26.12;100.00
5500;BME280;2772;42.700;23.304;2023-07-16T04:37:34;95396.81;;;26.17;100.00
5500;BME280;2772;42.700;23.304;2023-07-16T04:40:02;95395.59;;;26.22;100.00
5500;BME280;2772;42.700;23.304;2023-07-16T04:42:29;95401.03;;;26.29;100.00
5500;BME280;2772;42.700;23.304;2023-07-16T04:44:56;95399.06;;;26.33;100.00
5500;BME280;2772;42.700;23.304;2023-07-16T04:47:23;95399.78;;;26.37;100.00
5500;BME280;2772;42.700;23.304;2023-07-16T04:49:49;95403.72;;;26.36;100.00
5500;BME280;2772;42.700;23.304;2023-07-16T04:52:16;95400.19;;;26.39;100.00
5500;BME280;2772;42.700;23.304;2023-07-16T04:54:43;95404.03;;;26.45;100.00
5500;BME280;2772;42.700;23.304;2023-07-16T04:57:11;95407.53;;;26.53;100.00
5500;BME280;2772;42.700;23.304;2023-07-16T04:59:38;95407.94;;;26.48;100.00
5500;BME280;2772;42.700;23.304;2023-07-16T05:02:05;95406.38;;;26.46;100.00
5500;BME280;2772;42.700;23.304;2023-07-16T05:04:32;95409.88;;;26.51;100.00
5500;BME280;2772;42.700;23.304;2023-07-16T05:07:00;95418.41;;;26.56;100.00
5500;BME280;2772;42.700;23.304;2023-07-16T05:09:27;95407.84;;;26.62;100.00
5500;BME280;2772;42.700;23.304;2023-07-16T05:11:54;95406.28;;;26.64;100.00
5500;BME280;2772;42.700;23.304;2023-07-16T05:14:26;95405.88;;;26.62;100.00
5500;BME280;2772;42.700;23.304;2023-07-16T05:16:53;95407.00;;;26.72;100.00
5500;BME280;2772;42.700;23.304;2023-07-16T05:19:19;95406.97;;;26.82;100.00
5500;BME280;2772;42.700;23.304;2023-07-16T05:21:46;95411.94;;;26.91;100.00
5500;BME280;2772;42.700;23.304;2023-07-16T05:24:13;95411.13;;;26.97;100.00
5500;BME280;2772;42.700;23.304;2023-07-16T05:26:39;95407.19;;;26.98;100.00
5500;BME280;2772;42.700;23.304;2023-07-16T05:29:06;95413.75;;;27.08;100.00
5500;BME280;2772;42.700;23.304;2023-07-16T05:31:34;95418.78;;;27.13;100.00
5500;BME280;2772;42.700;23.304;2023-07-16T05:34:01;95413.31;;;27.13;100.00
5500;BME280;2772;42.700;23.304;2023-07-16T05:36:28;95416.44;;;27.15;100.00
5500;BME280;2772;42.700;23.304;2023-07-16T05:38:54;95423.06;;;27.14;100.00
5500;BME280;2772;42.700;23.304;2023-07-16T05:41:21;95415.97;;;27.23;100.00
5500;BME280;2772;42.700;23.304;2023-07-16T05:43:48;95421.00;;;27.32;100.00
5500;BME280;2772;42.700;23.304;2023-07-16T05:46:14;95421.72;;;27.39;100.00
5500;BME280;2772;42.700;23.304;2023-07-16T05:48:43;95431.53;;;27.37;100.00
5500;BME280;2772;42.700;23.304;2023-07-16T05:51:09;95433.38;;;27.43;100.00
5500;BME280;2772;42.700;23.304;2023-07-16T05:53:36;95426.69;;;27.48;100.00
5500;BME280;2772;42.700;23.304;2023-07-16T05:56:03;95430.50;;;27.57;100.00
5500;BME280;2772;42.700;23.304;2023-07-16T05:58:30;95435.53;;;27.62;100.00
5500;BME280;2772;42.700;23.304;2023-07-16T06:00:56;95430.88;;;27.59;100.00
5500;BME280;2772;42.700;23.304;2023-07-16T06:03:23;95436.31;;;27.63;100.00
5500;BME280;2772;42.700;23.304;2023-07-16T06:05:51;95434.97;;;27.78;100.00
5500;BME280;2772;42.700;23.304;2023-07-16T06:08:18;95431.53;;;27.74;100.00
5500;BME280;2772;42.700;23.304;2023-07-16T06:10:45;95436.59;;;27.75;100.00
5500;BME280;2772;42.700;23.304;2023-07-16T06:13:12;95432.22;;;27.81;100.00
5500;BME280;2772;42.700;23.304;2023-07-16T06:15:39;95427.88;;;27.84;100.00
5500;BME280;2772;42.700;23.304;2023-07-16T06:18:05;95437.25;;;27.86;100.00
5500;BME280;2772;42.700;23.304;2023-07-16T06:20:32;95443.81;;;27.96;100.00
5500;BME280;2772;42.700;23.304;2023-07-16T06:23:00;95433.94;;;28.06;100.00
5500;BME280;2772;42.700;23.304;2023-07-16T06:25:27;95436.59;;;28.09;100.00
5500;BME280;2772;42.700;23.304;2023-07-16T06:27:54;95440.34;;;28.22;100.00
5500;BME280;2772;42.700;23.304;2023-07-16T06:30:21;95428.34;;;28.13;100.00
5500;BME280;2772;42.700;23.304;2023-07-16T06:32:47;95430.13;;;28.26;100.00
5500;BME280;2772;42.700;23.304;2023-07-16T06:35:14;95433.22;;;28.28;100.00
5500;BME280;2772;42.700;23.304;2023-07-16T06:37:41;95438.03;;;28.21;100.00
5500;BME280;2772;42.700;23.304;2023-07-16T06:40:10;95427.78;;;28.25;100.00
5500;BME280;2772;42.700;23.304;2023-07-16T06:42:36;95424.28;;;28.24;100.00
5500;BME280;2772;42.700;23.304;2023-07-16T06:45:04;95423.88;;;28.26;100.00
5500;BME280;2772;42.700;23.304;2023-07-16T06:47:31;95427.66;;;28.35;100.00
5500;BME280;2772;42.700;23.304;2023-07-16T06:49:58;95429.25;;;28.33;100.00
5500;BME280;2772;42.700;23.304;2023-07-16T06:52:24;95419.91;;;28.30;100.00
5500;BME280;2772;42.700;23.304;2023-07-16T06:54:53;95422.63;;;28.30;100.00
5500;BME280;2772;42.700;23.304;2023-07-16T06:57:21;95424.44;;;28.40;100.00
5500;BME280;2772;42.700;23.304;2023-07-16T06:59:48;95416.88;;;28.51;100.00
5500;BME280;2772;42.700;23.304;2023-07-16T07:02:17;95421.31;;;28.68;100.00
5500;BME280;2772;42.700;23.304;2023-07-16T07:04:44;95424.06;;;28.68;100.00
5500;BME280;2772;42.700;23.304;2023-07-16T07:07:11;95424.56;;;28.63;100.00
5500;BME280;2772;42.700;23.304;2023-07-16T07:09:37;95421.81;;;28.63;100.00
5500;BME280;2772;42.700;23.304;2023-07-16T07:12:05;95420.41;;;28.78;100.00
5500;BME280;2772;42.700;23.304;2023-07-16T07:14:34;95413.88;;;28.95;100.00
5500;BME280;2772;42.700;23.304;2023-07-16T07:17:00;95417.59;;;29.08;100.00
5500;BME280;2772;42.700;23.304;2023-07-16T07:19:27;95419.38;;;29.18;100.00
5500;BME280;2772;42.700;23.304;2023-07-16T07:21:54;95428.34;;;29.22;100.00
5500;BME280;2772;42.700;23.304;2023-07-16T07:24:20;95427.16;;;29.23;100.00
5500;BME280;2772;42.700;23.304;2023-07-16T07:26:47;95419.94;;;29.33;100.00
5500;BME280;2772;42.700;23.304;2023-07-16T07:29:14;95424.22;;;29.34;100.00
5500;BME280;2772;42.700;23.304;2023-07-16T07:31:42;95420.63;;;29.37;100.00
5500;BME280;2772;42.700;23.304;2023-07-16T07:34:09;95415.09;;;29.40;100.00
5500;BME280;2772;42.700;23.304;2023-07-16T07:36:35;95414.38;;;29.36;100.00
5500;BME280;2772;42.700;23.304;2023-07-16T07:39:02;95413.53;;;29.39;100.00
5500;BME280;2772;42.700;23.304;2023-07-16T07:41:29;95418.88;;;29.47;100.00
5500;BME280;2772;42.700;23.304;2023-07-16T07:43:56;95419.63;;;29.51;100.00
5500;BME280;2772;42.700;23.304;2023-07-16T07:46:22;95413.47;;;29.66;100.00
5500;BME280;2772;42.700;23.304;2023-07-16T07:48:50;95413.09;;;29.64;100.00
5500;BME280;2772;42.700;23.304;2023-07-16T07:51:17;95416.00;;;29.77;100.00
5500;BME280;2772;42.700;23.304;2023-07-16T07:53:44;95411.09;;;29.88;100.00
5500;BME280;2772;42.700;23.304;2023-07-16T07:56:11;95410.88;;;29.79;100.00
5500;BME280;2772;42.700;23.304;2023-07-16T07:58:37;95403.81;;;29.78;100.00
5500;BME280;2772;42.700;23.304;2023-07-16T08:01:05;95410.50;;;29.77;100.00
5500;BME280;2772;42.700;23.304;2023-07-16T08:03:32;95414.75;;;29.81;100.00
5500;BME280;2772;42.700;23.304;2023-07-16T08:06:00;95403.31;;;29.83;100.00
5500;BME280;2772;42.700;23.304;2023-07-16T08:08:27;95409.38;;;29.94;100.00
5500;BME280;2772;42.700;23.304;2023-07-16T08:10:55;95409.31;;;29.97;100.00
5500;BME280;2772;42.700;23.304;2023-07-16T08:13:21;95405.25;;;30.05;100.00
5500;BME280;2772;42.700;23.304;2023-07-16T08:15:48;95402.50;;;30.05;100.00
5500;BME280;2772;42.700;23.304;2023-07-16T08:18:15;95410.00;;;30.01;100.00
5500;BME280;2772;42.700;23.304;2023-07-16T08:20:42;95410.63;;;30.09;100.00
5500;BME280;2772;42.700;23.304;2023-07-16T08:23:10;95401.97;;;30.10;100.00
5500;BME280;2772;42.700;23.304;2023-07-16T08:25:37;95401.91;;;30.14;100.00
5500;BME280;2772;42.700;23.304;2023-07-16T08:28:04;95408.75;;;30.06;100.00
5500;BME280;2772;42.700;23.304;2023-07-16T08:30:32;95402.50;;;30.05;100.00
5500;BME280;2772;42.700;23.304;2023-07-16T08:32:59;95409.88;;;30.08;100.00
5500;BME280;2772;42.700;23.304;2023-07-16T08:35:26;95410.50;;;30.16;100.00
5500;BME280;2772;42.700;23.304;2023-07-16T08:37:53;95411.94;;;30.24;100.00
5500;BME280;2772;42.700;23.304;2023-07-16T08:40:21;95410.38;;;30.23;100.00
5500;BME280;2772;42.700;23.304;2023-07-16T08:42:49;95400.63;;;30.38;100.00
5500;BME280;2772;42.700;23.304;2023-07-16T08:45:16;95396.88;;;30.48;100.00
5500;BME280;2772;42.700;23.304;2023-07-16T08:47:42;95397.22;;;30.50;100.00
5500;BME280;2772;42.700;23.304;2023-07-16T08:50:10;95395.50;;;30.56;100.00
5500;BME280;2772;42.700;23.304;2023-07-16T08:52:38;95399.28;;;30.62;100.00
5500;BME280;2772;42.700;23.304;2023-07-16T08:55:06;95397.75;;;30.61;100.00
5500;BME280;2772;42.700;23.304;2023-07-16T08:57:34;95395.69;;;30.65;100.00
5500;BME280;2772;42.700;23.304;2023-07-16T09:12:34;95391.34;;;31.00;99.42
5500;BME280;2772;42.700;23.304;2023-07-16T09:15:01;95390.94;;;30.85;100.00
5500;BME280;2772;42.700;23.304;2023-07-16T09:17:28;95386.97;;;30.86;100.00
5500;BME280;2772;42.700;23.304;2023-07-16T09:19:55;95386.63;;;30.84;100.00
5500;BME280;2772;42.700;23.304;2023-07-16T09:22:22;95387.13;;;30.79;100.00
5500;BME280;2772;42.700;23.304;2023-07-16T09:24:49;95386.06;;;30.73;100.00
5500;BME280;2772;42.700;23.304;2023-07-16T09:27:15;95378.56;;;30.77;100.00
5500;BME280;2772;42.700;23.304;2023-07-16T09:29:43;95380.09;;;30.78;100.00
5500;BME280;2772;42.700;23.304;2023-07-16T09:32:10;95373.56;;;30.88;100.00
5500;BME280;2772;42.700;23.304;2023-07-16T09:34:37;95382.16;;;30.90;100.00
5500;BME280;2772;42.700;23.304;2023-07-16T09:37:05;95374.94;;;30.96;100.00
5500;BME280;2772;42.700;23.304;2023-07-16T09:39:32;95367.00;;;30.98;100.00
5500;BME280;2772;42.700;23.304;2023-07-16T09:41:59;95376.41;;;31.01;100.00
5500;BME280;2772;42.700;23.304;2023-07-16T09:44:29;95376.28;;;31.04;100.00
5500;BME280;2772;42.700;23.304;2023-07-16T09:46:57;95376.66;;;31.06;98.84
5500;BME280;2772;42.700;23.304;2023-07-16T09:49:28;95377.84;;;31.05;97.37
5500;BME280;2772;42.700;23.304;2023-07-16T09:51:56;95366.34;;;31.10;100.00
5500;BME280;2772;42.700;23.304;2023-07-16T09:54:25;95364.59;;;31.16;100.00
5500;BME280;2772;42.700;23.304;2023-07-16T09:56:56;95358.53;;;31.21;99.67
5500;BME280;2772;42.700;23.304;2023-07-16T09:59:26;95358.53;;;31.21;98.90
5500;BME280;2772;42.700;23.304;2023-07-16T10:01:54;95362.34;;;31.27;98.98
5500;BME280;2772;42.700;23.304;2023-07-16T10:04:23;95355.28;;;31.26;99.16
5500;BME280;2772;42.700;23.304;2023-07-16T10:06:55;95362.88;;;31.38;100.00
5500;BME280;2772;42.700;23.304;2023-07-16T10:09:38;95353.41;;;31.39;100.00
5500;BME280;2772;42.700;23.304;2023-07-16T10:12:13;95349.00;;;31.42;98.58
5500;BME280;2772;42.700;23.304;2023-07-16T10:14:41;95355.41;;;31.51;96.69
5500;BME280;2772;42.700;23.304;2023-07-16T10:17:11;95355.50;;;31.48;98.97
5500;BME280;2772;42.700;23.304;2023-07-16T10:19:48;95352.75;;;31.48;97.62
5500;BME280;2772;42.700;23.304;2023-07-16T10:22:14;95346.22;;;31.42;96.11
5500;BME280;2772;42.700;23.304;2023-07-16T10:24:41;95337.44;;;31.47;98.57
5500;BME280;2772;42.700;23.304;2023-07-16T10:27:09;95341.13;;;31.56;99.57
5500;BME280;2772;42.700;23.304;2023-07-16T10:29:35;95339.94;;;31.70;99.18
5500;BME280;2772;42.700;23.304;2023-07-16T10:32:03;95332.38;;;31.74;95.44
5500;BME280;2772;42.700;23.304;2023-07-16T10:34:34;95340.50;;;31.77;96.25
5500;BME280;2772;42.700;23.304;2023-07-16T10:37:03;95339.56;;;31.84;93.17
5500;BME280;2772;42.700;23.304;2023-07-16T10:39:30;95338.38;;;31.85;91.63
5500;BME280;2772;42.700;23.304;2023-07-16T10:41:57;95334.63;;;31.91;91.96
5500;BME280;2772;42.700;23.304;2023-07-16T10:44:24;95339.56;;;31.84;91.19
5500;BME280;2772;42.700;23.304;2023-07-16T10:46:50;95334.84;;;31.84;92.35
5500;BME280;2772;42.700;23.304;2023-07-16T10:49:26;95340.47;;;31.93;90.90
5500;BME280;2772;42.700;23.304;2023-07-16T10:51:53;95335.31;;;31.95;87.65
5500;BME280;2772;42.700;23.304;2023-07-16T10:54:21;95327.25;;;32.01;87.06
5500;BME280;2772;42.700;23.304;2023-07-16T10:56:50;95330.16;;;32.10;87.86
5500;BME280;2772;42.700;23.304;2023-07-16T10:59:17;95326.84;;;32.15;87.44
5500;BME280;2772;42.700;23.304;2023-07-16T11:01:45;95324.31;;;32.20;88.05
5500;BME280;2772;42.700;23.304;2023-07-16T11:04:11;95323.19;;;32.30;86.73
5500;BME280;2772;42.700;23.304;2023-07-16T11:06:38;95316.81;;;32.33;85.86
5500;BME280;2772;42.700;23.304;2023-07-16T11:09:08;95318.56;;;32.27;87.14
5500;BME280;2772;42.700;23.304;2023-07-16T11:11:36;95314.19;;;32.30;88.69
5500;BME280;2772;42.700;23.304;2023-07-16T11:14:06;95314.81;;;32.34;87.29
5500;BME280;2772;42.700;23.304;2023-07-16T11:16:34;95305.59;;;32.41;90.06
5500;BME280;2772;42.700;23.304;2023-07-16T11:19:03;95304.59;;;32.47;87.53
5500;BME280;2772;42.700;23.304;2023-07-16T11:21:30;95310.31;;;32.53;85.25
5500;BME280;2772;42.700;23.304;2023-07-16T11:24:07;95305.78;;;32.59;85.22
5500;BME280;2772;42.700;23.304;2023-07-16T11:26:35;95313.97;;;32.62;81.93
5500;BME280;2772;42.700;23.304;2023-07-16T11:29:12;95313.63;;;32.60;80.57
5500;BME280;2772;42.700;23.304;2023-07-16T11:31:40;95305.78;;;32.59;81.51
5500;BME280;2772;42.700;23.304;2023-07-16T11:34:07;95300.94;;;32.63;79.70
5500;BME280;2772;42.700;23.304;2023-07-16T11:36:34;95295.31;;;32.66;78.97
5500;BME280;2772;42.700;23.304;2023-07-16T11:39:02;95299.38;;;32.62;79.56
5500;BME280;2772;42.700;23.304;2023-07-16T11:41:29;95296.84;;;32.67;75.91
5500;BME280;2772;42.700;23.304;2023-07-16T11:44:00;95286.59;;;32.68;75.38
5500;BME280;2772;42.700;23.304;2023-07-16T11:46:31;95296.50;;;32.78;75.67
5500;BME280;2772;42.700;23.304;2023-07-16T11:48:57;95289.19;;;32.84;77.10
5500;BME280;2772;42.700;23.304;2023-07-16T11:51:24;95296.28;;;32.85;76.41
5500;BME280;2772;42.700;23.304;2023-07-16T11:53:51;95293.28;;;32.92;78.78
5500;BME280;2772;42.700;23.304;2023-07-16T11:56:18;95286.31;;;33.00;78.63
5500;BME280;2772;42.700;23.304;2023-07-16T11:58:44;95293.13;;;33.08;77.65
5500;BME280;2772;42.700;23.304;2023-07-16T12:01:12;95289.47;;;33.11;75.78
5500;BME280;2772;42.700;23.304;2023-07-16T12:03:40;95287.34;;;33.15;76.15
5500;BME280;2772;42.700;23.304;2023-07-16T12:06:07;95285.44;;;33.24;76.43
5500;BME280;2772;42.700;23.304;2023-07-16T12:08:34;95280.13;;;33.30;74.16
5500;BME280;2772;42.700;23.304;2023-07-16T12:11:01;95275.69;;;33.32;72.69
5500;BME280;2772;42.700;23.304;2023-07-16T12:13:28;95286.53;;;33.39;73.87
5500;BME280;2772;42.700;23.304;2023-07-16T12:15:54;95273.59;;;33.36;70.21
5500;BME280;2772;42.700;23.304;2023-07-16T12:18:23;95280.00;;;33.46;72.08
5500;BME280;2772;42.700;23.304;2023-07-16T12:20:49;95276.56;;;33.42;70.55
5500;BME280;2772;42.700;23.304;2023-07-16T12:23:16;95262.19;;;33.47;68.75
5500;BME280;2772;42.700;23.304;2023-07-16T12:25:43;95267.38;;;33.45;71.13
5500;BME280;2772;42.700;23.304;2023-07-16T12:28:10;95268.59;;;33.44;67.43
5500;BME280;2772;42.700;23.304;2023-07-16T12:30:37;95259.75;;;33.49;68.33
5500;BME280;2772;42.700;23.304;2023-07-16T12:33:04;95260.94;;;33.48;67.37
5500;BME280;2772;42.700;23.304;2023-07-16T12:35:32;95259.28;;;33.50;66.82
5500;BME280;2772;42.700;23.304;2023-07-16T12:37:59;95263.91;;;33.53;64.84
5500;BME280;2772;42.700;23.304;2023-07-16T12:40:28;95259.00;;;33.57;65.60
5500;BME280;2772;42.700;23.304;2023-07-16T12:42:56;95261.84;;;33.66;64.21
5500;BME280;2772;42.700;23.304;2023-07-16T12:45:23;95257.09;;;33.67;64.93
5500;BME280;2772;42.700;23.304;2023-07-16T12:47:50;95258.50;;;33.71;65.42
5500;BME280;2772;42.700;23.304;2023-07-16T12:50:17;95253.47;;;33.79;64.67
5500;BME280;2772;42.700;23.304;2023-07-16T12:52:48;95256.88;;;33.83;63.05
5500;BME280;2772;42.700;23.304;2023-07-16T12:55:15;95247.94;;;33.79;61.40
5500;BME280;2772;42.700;23.304;2023-07-16T12:57:42;95245.63;;;33.77;60.43
5500;BME280;2772;42.700;23.304;2023-07-16T13:00:09;95244.88;;;33.77;60.53
5500;BME280;2772;42.700;23.304;2023-07-16T13:02:38;95248.09;;;33.75;60.49
5500;BME280;2772;42.700;23.304;2023-07-16T13:05:05;95247.19;;;33.78;59.91
5500;BME280;2772;42.700;23.304;2023-07-16T13:07:33;95242.59;;;33.85;60.06
5500;BME280;2772;42.700;23.304;2023-07-16T13:10:02;95235.38;;;33.87;58.59
5500;BME280;2772;42.700;23.304;2023-07-16T13:12:29;95247.13;;;33.91;58.99
5500;BME280;2772;42.700;23.304;2023-07-16T13:14:56;95242.16;;;33.86;57.97
5500;BME280;2772;42.700;23.304;2023-07-16T13:17:23;95234.19;;;33.88;57.97